createdAt,value
2022-08-03T00:01:49.782Z,66.90
2022-08-03T00:04:16.454Z,67.10
2022-08-03T00:06:43.121Z,67.40
2022-08-03T00:09:09.864Z,67.70
2022-08-03T00:11:36.576Z,67.90
2022-08-03T00:14:04.582Z,68.10
2022-08-03T00:16:31.366Z,68.20
2022-08-03T00:18:58.030Z,68.30
2022-08-03T00:21:27.956Z,68.40
2022-08-03T00:23:54.662Z,68.40
2022-08-03T00:26:21.892Z,68.40
2022-08-03T01:00:39.994Z,67.80
2022-08-03T01:03:07.608Z,67.80
2022-08-03T01:06:03.289Z,67.70
2022-08-03T01:08:52.560Z,68.00
2022-08-03T01:11:30.926Z,68.00
2022-08-03T01:14:18.772Z,68.00
2022-08-03T01:16:54.958Z,68.00
2022-08-03T01:19:41.821Z,68.00
2022-08-03T01:22:27.090Z,68.10
2022-08-03T01:24:53.721Z,68.10
2022-08-03T01:27:29.561Z,67.90
2022-08-03T01:29:56.154Z,67.80
2022-08-03T01:33:00.126Z,67.90
2022-08-03T01:35:27.835Z,67.90
2022-08-03T01:37:58.571Z,67.90
2022-08-03T01:40:26.905Z,68.10
2022-08-03T01:42:54.675Z,68.20
2022-08-03T01:45:21.440Z,68.30
2022-08-03T01:47:48.321Z,68.30
2022-08-03T01:50:14.951Z,68.40
2022-08-03T01:52:43.427Z,68.50
2022-08-03T01:55:10.287Z,68.70
2022-08-03T01:58:06.235Z,68.80
2022-08-03T02:00:24.771Z,68.90
2022-08-03T02:02:51.455Z,69.00
2022-08-03T02:05:18.264Z,69.10
2022-08-03T02:07:44.913Z,69.10
2022-08-03T02:10:12.552Z,69.30
2022-08-03T02:12:39.182Z,69.40
2022-08-03T02:15:06.516Z,69.40
2022-08-03T02:17:39.832Z,69.60
2022-08-03T02:20:10.487Z,69.70
2022-08-03T02:22:39.063Z,69.90
2022-08-03T02:25:06.878Z,70.00
2022-08-03T02:27:33.562Z,70.00
2022-08-03T02:30:08.428Z,70.10
2022-08-03T02:32:36.963Z,70.20
2022-08-03T02:35:04.717Z,70.20
2022-08-03T02:37:32.801Z,70.20
2022-08-03T02:40:02.097Z,70.20
2022-08-03T02:42:29.333Z,70.20
2022-08-03T02:44:56.783Z,70.10
2022-08-03T02:47:23.472Z,70.20
2022-08-03T02:49:52.201Z,70.30
2022-08-03T02:52:22.371Z,70.40
2022-08-03T02:54:52.546Z,70.40
2022-08-03T02:57:20.012Z,70.40
2022-08-03T02:59:46.772Z,70.40
2022-08-03T03:02:14.168Z,70.50
2022-08-03T03:04:41.827Z,70.60
2022-08-03T03:07:28.786Z,70.70
2022-08-03T03:09:57.938Z,70.70
2022-08-03T03:12:24.638Z,70.60
2022-08-03T03:14:51.261Z,70.70
2022-08-03T03:17:17.938Z,70.80
2022-08-03T03:19:44.565Z,70.80
2022-08-03T03:22:11.284Z,70.80
2022-08-03T03:24:38.031Z,70.80
2022-08-03T03:27:04.738Z,70.80
2022-08-03T03:29:32.255Z,70.80
2022-08-03T03:32:08.313Z,70.90
2022-08-03T03:34:35.936Z,70.80
2022-08-03T03:37:02.619Z,70.80
2022-08-03T03:39:29.300Z,70.70
2022-08-03T03:41:57.000Z,70.70
2022-08-03T03:44:27.912Z,70.80
2022-08-03T03:46:55.487Z,70.80
2022-08-03T03:49:22.234Z,70.80
2022-08-03T03:51:49.013Z,70.90
2022-08-03T03:54:15.684Z,70.90
2022-08-03T03:56:42.356Z,71.00
2022-08-03T03:59:09.106Z,71.00
2022-08-03T04:01:35.749Z,71.00
2022-08-03T04:04:02.435Z,71.10
2022-08-03T04:06:29.124Z,71.20
2022-08-03T04:08:55.782Z,71.30
2022-08-03T04:11:30.086Z,71.30
2022-08-03T04:14:06.582Z,71.60
2022-08-03T04:16:35.337Z,71.60
2022-08-03T04:19:04.387Z,71.80
2022-08-03T04:21:31.115Z,71.70
2022-08-03T04:24:00.271Z,71.70
2022-08-03T04:26:28.823Z,71.80
2022-08-03T04:28:55.538Z,71.90
2022-08-03T04:31:22.969Z,72.00
2022-08-03T04:33:50.524Z,72.10
2022-08-03T04:36:19.567Z,72.30
2022-08-03T04:39:08.655Z,72.30
2022-08-03T04:42:04.315Z,72.50
2022-08-03T04:44:23.024Z,72.70
2022-08-03T04:46:55.179Z,72.70
2022-08-03T04:49:21.926Z,72.70
2022-08-03T04:51:49.475Z,72.90
2022-08-03T04:54:16.464Z,73.00
2022-08-03T04:56:43.470Z,73.10
2022-08-03T04:59:10.660Z,73.10
2022-08-03T05:01:37.400Z,73.20
2022-08-03T05:04:04.240Z,73.20
2022-08-03T05:06:30.871Z,73.20
2022-08-03T05:08:58.881Z,73.50
2022-08-03T05:11:25.813Z,73.60
2022-08-03T05:13:52.535Z,73.70
2022-08-03T05:16:19.179Z,73.70
2022-08-03T05:18:45.801Z,73.60
2022-08-03T05:21:12.710Z,73.60
2022-08-03T05:23:39.480Z,73.60
2022-08-03T05:26:06.139Z,73.60
2022-08-03T05:28:32.798Z,73.60
2022-08-03T05:30:59.745Z,73.50
2022-08-03T05:33:26.689Z,73.60
2022-08-03T05:36:01.295Z,73.50
2022-08-03T05:38:34.850Z,73.60
2022-08-03T05:41:22.724Z,73.50
2022-08-03T05:43:51.851Z,73.50
2022-08-03T05:46:18.698Z,73.30
2022-08-03T05:48:45.511Z,73.30
2022-08-03T05:51:13.106Z,73.30
2022-08-03T05:53:40.795Z,73.20
2022-08-03T05:56:14.730Z,73.20
2022-08-03T05:58:46.398Z,73.10
2022-08-03T06:01:13.339Z,73.00
2022-08-03T06:03:40.128Z,72.90
2022-08-03T06:06:06.780Z,72.80
2022-08-03T06:08:33.939Z,72.80
2022-08-03T06:11:00.832Z,72.80
2022-08-03T06:13:27.563Z,72.70
2022-08-03T06:15:54.187Z,72.50
2022-08-03T06:18:20.843Z,72.40
2022-08-03T06:20:49.638Z,72.20
2022-08-03T06:23:17.985Z,72.00
2022-08-03T06:25:45.423Z,72.00
2022-08-03T06:28:42.344Z,71.90
2022-08-03T06:31:01.782Z,71.60
2022-08-03T06:33:48.457Z,71.40
2022-08-03T06:36:15.296Z,71.40
2022-08-03T06:38:41.950Z,71.40
2022-08-03T06:41:08.599Z,71.30
2022-08-03T06:43:35.879Z,71.20
2022-08-03T06:46:02.852Z,71.10
2022-08-03T06:48:29.495Z,70.90
2022-08-03T06:50:56.111Z,70.80
2022-08-03T06:53:22.810Z,70.80
2022-08-03T06:55:54.038Z,70.60
2022-08-03T06:58:21.287Z,70.50
2022-08-03T07:00:47.925Z,70.50
2022-08-03T07:03:14.534Z,70.40
2022-08-03T07:05:42.239Z,70.30
2022-08-03T07:08:09.036Z,70.20
2022-08-03T07:10:35.692Z,70.10
2022-08-03T07:13:02.489Z,69.90
2022-08-03T07:15:53.753Z,69.90
2022-08-03T07:18:15.789Z,69.80
2022-08-03T07:20:42.459Z,69.60
2022-08-03T07:23:09.130Z,69.40
2022-08-03T07:25:35.896Z,69.10
2022-08-03T07:28:02.995Z,69.00
2022-08-03T07:30:29.681Z,69.00
2022-08-03T07:32:56.361Z,68.90
2022-08-03T07:35:25.371Z,68.90
2022-08-03T07:37:55.342Z,68.80
2022-08-03T07:40:22.300Z,68.20
2022-08-03T07:42:53.468Z,67.30
2022-08-03T07:45:20.371Z,66.00
2022-08-03T07:47:53.327Z,64.80
2022-08-03T07:50:20.775Z,63.80
2022-08-03T07:52:47.688Z,62.60
2022-08-03T07:55:14.368Z,62.00
2022-08-03T07:57:41.086Z,61.10
2022-08-03T08:00:12.623Z,60.70
2022-08-03T08:02:40.061Z,59.80
2022-08-03T08:05:07.323Z,59.20
2022-08-03T08:07:34.069Z,58.00
2022-08-03T08:10:00.798Z,57.00
2022-08-03T08:12:27.461Z,56.20
2022-08-03T08:14:54.158Z,55.60
2022-08-03T08:17:24.186Z,55.10
2022-08-03T08:19:51.611Z,54.80
2022-08-03T08:22:19.217Z,54.10
2022-08-03T08:24:55.956Z,53.80
2022-08-03T08:27:22.675Z,53.10
2022-08-03T08:29:54.232Z,52.60
2022-08-03T08:32:23.448Z,52.40
2022-08-03T08:34:50.426Z,51.50
2022-08-03T08:37:17.294Z,51.00
2022-08-03T08:39:44.064Z,50.40
2022-08-03T08:42:10.701Z,50.30
2022-08-03T08:44:37.335Z,49.10
2022-08-03T08:47:04.069Z,48.40
2022-08-03T08:49:30.798Z,48.30
2022-08-03T08:52:00.820Z,48.00
2022-08-03T08:54:28.137Z,47.30
2022-08-03T08:56:54.888Z,46.90
2022-08-03T08:59:21.559Z,46.30
2022-08-03T09:01:50.111Z,45.70
2022-08-03T09:04:19.434Z,45.30
2022-08-03T09:07:10.554Z,45.00
2022-08-03T09:10:11.013Z,44.20
2022-08-03T09:12:42.361Z,44.30
2022-08-03T09:15:29.568Z,43.40
2022-08-03T09:17:57.519Z,42.50
2022-08-03T09:20:25.121Z,42.80
2022-08-03T09:22:53.282Z,42.00
2022-08-03T09:25:24.711Z,41.50
2022-08-03T09:27:51.766Z,41.20
2022-08-03T09:30:33.658Z,40.60
2022-08-03T09:33:06.552Z,40.00
2022-08-03T09:35:53.080Z,39.60
2022-08-03T09:38:24.188Z,39.40
2022-08-03T09:40:51.583Z,39.40
2022-08-03T09:43:20.471Z,39.10
2022-08-03T09:45:47.288Z,39.00
2022-08-03T09:48:30.063Z,38.90
2022-08-03T09:51:12.765Z,38.40
2022-08-03T09:53:57.300Z,37.20
2022-08-03T09:56:38.757Z,37.20
2022-08-03T09:59:06.075Z,37.10
2022-08-03T10:01:33.637Z,37.40
2022-08-03T10:04:04.285Z,37.50
2022-08-03T10:06:31.833Z,37.30
2022-08-03T10:09:15.135Z,37.70
2022-08-03T10:11:42.668Z,36.40
2022-08-03T10:14:12.597Z,36.80
2022-08-03T10:16:40.050Z,36.30
2022-08-03T10:19:08.240Z,36.30
2022-08-03T10:21:36.884Z,36.00
2022-08-03T10:24:04.990Z,35.70
2022-08-03T10:26:33.392Z,35.50
2022-08-03T10:29:00.622Z,35.20
2022-08-03T10:31:37.859Z,35.20
2022-08-03T10:34:23.534Z,34.80
2022-08-03T10:36:50.265Z,34.50
2022-08-03T10:39:18.882Z,34.50
2022-08-03T10:41:45.580Z,34.60
2022-08-03T10:44:19.707Z,34.40
2022-08-03T10:46:47.391Z,34.60
2022-08-03T10:49:33.547Z,34.40
2022-08-03T10:52:02.684Z,34.10
2022-08-03T10:54:43.766Z,33.60
2022-08-03T10:57:58.800Z,33.30
2022-08-03T11:00:26.219Z,33.20
2022-08-03T11:03:02.214Z,33.60
2022-08-03T11:05:30.217Z,33.80
2022-08-03T11:08:25.972Z,33.50
2022-08-03T11:11:00.876Z,33.00
2022-08-03T11:13:27.938Z,32.50
2022-08-03T11:16:00.156Z,33.20
2022-08-03T11:18:29.801Z,33.30
2022-08-03T11:21:00.123Z,33.20
2022-08-03T11:24:02.954Z,33.30
2022-08-03T11:26:30.842Z,32.70
2022-08-03T11:29:21.987Z,33.30
2022-08-03T11:31:50.657Z,32.80
2022-08-03T11:34:18.333Z,32.50
2022-08-03T11:37:19.991Z,32.20
2022-08-03T11:39:48.286Z,31.40
2022-08-03T11:42:23.758Z,31.70
2022-08-03T11:44:51.087Z,31.40
2022-08-03T11:47:20.288Z,31.40
2022-08-03T11:49:47.552Z,31.40
2022-08-03T11:52:14.480Z,31.30
2022-08-03T11:54:41.179Z,31.00
2022-08-03T11:57:07.842Z,31.10
2022-08-03T11:59:35.135Z,31.70
2022-08-03T12:02:12.463Z,32.10
2022-08-03T12:04:54.917Z,31.80
2022-08-03T12:07:25.002Z,31.60
2022-08-03T12:10:13.025Z,31.50
2022-08-03T12:12:43.348Z,31.70
2022-08-03T12:15:13.167Z,31.40
2022-08-03T12:17:40.478Z,31.30
2022-08-03T12:20:08.516Z,31.20
2022-08-03T12:22:38.827Z,31.10
2022-08-03T12:25:09.112Z,31.00
2022-08-03T12:27:35.957Z,30.90
2022-08-03T12:30:04.005Z,30.70
2022-08-03T12:32:30.752Z,30.80
2022-08-03T12:34:58.073Z,30.80
2022-08-03T12:37:26.831Z,30.70
2022-08-03T12:40:03.007Z,30.30
2022-08-03T12:42:37.170Z,30.30
2022-08-03T12:45:39.190Z,30.50
2022-08-03T12:48:12.307Z,31.10
2022-08-03T12:50:39.429Z,30.50
2022-08-03T12:53:07.963Z,29.90
2022-08-03T12:55:56.200Z,29.70
2022-08-03T12:58:37.178Z,29.80
2022-08-03T13:01:09.191Z,30.00
2022-08-03T13:03:50.343Z,29.90
2022-08-03T13:06:25.979Z,29.70
2022-08-03T13:09:05.943Z,29.60
2022-08-03T13:11:57.645Z,29.60
2022-08-03T13:14:23.808Z,28.90
2022-08-03T13:16:50.611Z,29.30
2022-08-03T13:19:19.802Z,29.00
2022-08-03T13:21:53.577Z,29.30
2022-08-03T13:24:31.911Z,29.10
2022-08-03T13:26:59.554Z,29.30
2022-08-03T13:29:26.226Z,29.10
2022-08-03T13:31:52.915Z,29.30
2022-08-03T13:34:23.090Z,29.60
2022-08-03T13:40:00.137Z,29.30
2022-08-03T13:42:25.815Z,29.50
2022-08-03T13:44:55.675Z,29.90
2022-08-03T13:47:25.496Z,29.70
2022-08-03T13:50:00.174Z,29.20
2022-08-03T13:52:32.322Z,28.90
2022-08-03T13:54:59.057Z,28.80
2022-08-03T13:58:02.453Z,29.10
2022-08-03T14:00:12.977Z,29.10
2022-08-03T14:02:53.085Z,29.10
2022-08-03T14:05:19.758Z,29.20
2022-08-03T14:07:46.435Z,29.20
2022-08-03T14:10:13.201Z,29.20
2022-08-03T14:12:47.449Z,29.10
2022-08-03T14:15:16.775Z,29.10
2022-08-03T14:17:50.044Z,29.30
2022-08-03T14:20:37.126Z,29.30
2022-08-03T14:23:04.472Z,29.40
2022-08-03T14:25:44.416Z,29.10
2022-08-03T14:28:21.179Z,29.20
2022-08-03T14:31:02.547Z,29.40
2022-08-03T14:33:29.389Z,29.30
2022-08-03T14:35:56.149Z,29.60
2022-08-03T14:38:22.873Z,29.80
2022-08-03T14:40:50.033Z,29.90
2022-08-03T14:43:19.031Z,29.80
2022-08-03T14:45:46.292Z,29.70
2022-08-03T14:50:31.972Z,29.90
2022-08-03T14:50:59.691Z,30.00
2022-08-03T14:53:26.384Z,30.40
2022-08-03T14:55:53.007Z,30.00
2022-08-03T14:58:21.679Z,30.10
2022-08-03T15:00:49.553Z,30.30
2022-08-03T15:03:17.019Z,30.30
2022-08-03T15:05:44.526Z,30.80
2022-08-03T15:08:11.211Z,31.00
2022-08-03T15:10:44.383Z,31.10
2022-08-03T15:13:19.887Z,31.00
2022-08-03T15:15:46.778Z,31.10
2022-08-03T15:18:23.587Z,30.80
2022-08-03T15:20:50.277Z,30.80
2022-08-03T15:23:17.701Z,31.20
2022-08-03T15:26:32.120Z,31.00
2022-08-03T15:28:31.946Z,31.30
2022-08-03T15:30:58.669Z,31.20
2022-08-03T15:33:25.303Z,31.50
2022-08-03T15:35:52.536Z,31.30
2022-08-03T15:38:21.964Z,31.20
2022-08-03T15:40:52.803Z,31.30
2022-08-03T15:43:19.591Z,31.10
2022-08-03T15:45:46.237Z,31.30
2022-08-03T15:48:12.955Z,31.20
2022-08-03T15:50:39.791Z,31.40
2022-08-03T15:53:08.933Z,31.60
2022-08-03T15:55:37.415Z,31.50
2022-08-03T15:59:03.572Z,31.50
2022-08-03T16:00:50.752Z,31.70
2022-08-03T16:03:17.495Z,31.60
2022-08-03T16:05:44.783Z,32.10
2022-08-03T16:08:13.826Z,31.90
2022-08-03T16:10:40.864Z,32.50
2022-08-03T16:13:07.788Z,32.80
2022-08-03T16:15:34.538Z,33.20
2022-08-03T16:18:06.541Z,33.60
2022-08-03T16:20:35.078Z,33.90
2022-08-03T16:23:09.141Z,34.20
2022-08-03T16:25:40.740Z,34.20
2022-08-03T16:28:14.847Z,34.50
2022-08-03T16:30:42.660Z,35.00
2022-08-03T16:33:09.393Z,35.50
2022-08-03T16:35:36.056Z,35.90
2022-08-03T16:38:07.887Z,35.90
2022-08-03T16:40:37.702Z,36.30
2022-08-03T16:43:18.990Z,36.50
2022-08-03T16:45:46.510Z,37.10
2022-08-03T16:48:13.341Z,37.20
2022-08-03T16:50:40.094Z,37.30
2022-08-03T16:53:09.226Z,37.60
2022-08-03T16:55:48.780Z,37.90
2022-08-03T16:58:34.686Z,38.20
2022-08-03T17:01:20.901Z,38.30
2022-08-03T17:04:01.991Z,38.40
2022-08-03T17:06:34.481Z,38.80
2022-08-03T17:09:03.475Z,38.90
2022-08-03T17:11:32.930Z,38.90
2022-08-03T17:14:00.106Z,39.20
2022-08-03T17:16:26.708Z,39.50
2022-08-03T17:19:02.057Z,39.70
2022-08-03T17:21:32.301Z,39.80
2022-08-03T17:24:24.558Z,39.90
2022-08-03T17:26:51.995Z,40.20
2022-08-03T17:29:19.550Z,40.20
2022-08-03T17:31:53.272Z,40.30
2022-08-03T17:34:26.686Z,40.50
2022-08-03T17:37:27.253Z,40.60
2022-08-03T17:39:58.131Z,40.70
2022-08-03T17:42:38.847Z,40.80
2022-08-03T17:45:07.165Z,40.90
2022-08-03T17:47:41.418Z,40.90
2022-08-03T17:50:24.029Z,41.30
2022-08-03T17:52:56.371Z,41.50
2022-08-03T17:55:56.496Z,41.50
2022-08-03T17:58:31.535Z,41.60
2022-08-03T18:01:00.090Z,41.70
2022-08-03T18:03:58.734Z,42.20
2022-08-03T18:06:28.907Z,42.60
2022-08-03T18:08:55.775Z,42.50
2022-08-03T18:11:35.631Z,42.70
2022-08-03T18:14:16.068Z,42.70
2022-08-03T18:17:10.385Z,42.80
2022-08-03T18:20:03.604Z,42.90
2022-08-03T18:22:28.001Z,42.90
2022-08-03T18:24:57.424Z,43.10
2022-08-03T18:27:24.240Z,43.20
2022-08-03T18:30:30.437Z,43.50
2022-08-03T18:33:00.707Z,43.50
2022-08-03T18:35:28.473Z,43.50
2022-08-03T18:38:15.330Z,43.80
2022-08-03T18:40:48.833Z,43.70
2022-08-03T18:43:18.859Z,43.70
2022-08-03T18:45:57.218Z,43.80
2022-08-03T18:48:52.076Z,43.90
2022-08-03T18:51:28.471Z,44.00
2022-08-03T18:54:45.851Z,44.10
2022-08-03T18:57:08.318Z,44.20
2022-08-03T19:00:14.363Z,44.30
2022-08-03T19:02:56.396Z,44.60
2022-08-03T19:06:01.963Z,44.80
2022-08-03T19:08:41.606Z,44.80
2022-08-03T19:11:09.624Z,44.90
2022-08-03T19:13:44.478Z,44.90
2022-08-03T19:16:21.618Z,45.00
2022-08-03T19:18:49.095Z,45.10
2022-08-03T19:21:16.053Z,45.10
2022-08-03T19:23:47.303Z,45.10
2022-08-03T19:26:30.254Z,45.40
2022-08-03T19:28:58.091Z,45.50
2022-08-03T19:31:25.634Z,45.70
2022-08-03T19:33:58.203Z,45.90
2022-08-03T19:36:28.213Z,46.10
2022-08-03T19:38:55.947Z,46.10
2022-08-03T19:44:21.241Z,46.50
2022-08-03T19:46:53.398Z,46.70
2022-08-03T19:49:20.883Z,47.00
2022-08-03T19:51:59.041Z,47.20
2022-08-03T19:54:53.137Z,47.30
2022-08-03T19:57:23.253Z,47.40
2022-08-03T19:59:50.693Z,47.60
2022-08-03T20:02:27.025Z,47.60
2022-08-03T20:04:57.832Z,47.90
2022-08-03T20:07:27.738Z,48.10
2022-08-03T20:09:56.527Z,48.20
2022-08-03T20:12:26.643Z,48.30
2022-08-03T20:14:56.402Z,48.20
2022-08-03T20:17:23.062Z,48.20
2022-08-03T20:20:09.999Z,48.40
2022-08-03T20:22:39.138Z,48.50
2022-08-03T20:25:08.406Z,48.60
2022-08-03T20:28:07.719Z,48.90
2022-08-03T20:30:42.540Z,48.90
2022-08-03T20:33:09.938Z,49.00
2022-08-03T20:35:36.672Z,49.00
2022-08-03T20:38:06.167Z,49.00
2022-08-03T20:40:32.894Z,49.00
2022-08-03T20:42:59.580Z,48.90
2022-08-03T20:46:00.074Z,48.90
2022-08-03T20:48:15.986Z,48.90
2022-08-03T20:50:43.479Z,49.00
2022-08-03T20:53:11.981Z,49.10
2022-08-03T20:55:47.773Z,49.20
2022-08-03T20:58:25.493Z,49.10
2022-08-03T21:00:53.177Z,49.20
2022-08-03T21:03:19.854Z,49.10
2022-08-03T21:05:47.880Z,49.00
2022-08-03T21:08:18.296Z,48.90
2022-08-03T21:10:45.064Z,48.90
2022-08-03T21:13:02.694Z,46.30
2022-08-03T21:13:24.864Z,49.10
2022-08-03T21:16:03.144Z,48.90
2022-08-03T21:18:48.882Z,49.10
2022-08-03T21:21:16.678Z,48.90
2022-08-03T21:23:48.326Z,49.00
2022-08-03T21:26:16.464Z,49.00
2022-08-03T21:28:43.163Z,49.00
2022-08-03T21:31:10.030Z,48.90
2022-08-03T21:33:36.647Z,48.80
2022-08-03T21:36:03.641Z,48.90
2022-08-03T21:38:30.448Z,48.60
2022-08-03T21:40:57.194Z,48.70
2022-08-03T21:43:23.805Z,48.70
2022-08-03T21:45:53.043Z,48.70
2022-08-03T21:48:19.782Z,48.70
2022-08-03T21:50:46.487Z,48.80
2022-08-03T21:53:13.145Z,48.80
2022-08-03T21:55:39.951Z,48.80
2022-08-03T21:58:06.733Z,48.90
2022-08-03T22:00:33.514Z,48.90
2022-08-03T22:03:00.184Z,48.90
2022-08-03T22:05:43.619Z,49.00
2022-08-03T22:08:12.726Z,49.00
2022-08-03T22:10:39.474Z,49.00
2022-08-03T22:13:06.247Z,49.20
2022-08-03T22:15:32.961Z,49.30
2022-08-03T22:17:59.656Z,49.60
2022-08-03T22:20:26.350Z,49.70
2022-08-03T22:22:56.548Z,50.10
2022-08-03T22:25:29.188Z,50.30
2022-08-03T22:27:56.514Z,50.50
2022-08-03T22:30:23.166Z,50.70
2022-08-03T22:32:51.325Z,50.80
2022-08-03T22:35:18.000Z,50.90
2022-08-03T22:37:45.084Z,51.00
2022-08-03T22:40:19.035Z,51.10
2022-08-03T22:42:45.853Z,51.10
2022-08-03T22:45:12.568Z,51.10
2022-08-03T22:47:59.487Z,51.20
2022-08-03T22:50:32.810Z,51.20
2022-08-03T22:53:00.498Z,51.30
2022-08-03T22:55:27.262Z,51.60
2022-08-03T22:57:55.956Z,51.80
2022-08-03T23:00:23.070Z,51.80
2022-08-03T23:02:49.785Z,52.00
2022-08-03T23:06:02.060Z,52.10
2022-08-03T23:08:07.221Z,52.30
2022-08-03T23:10:33.837Z,52.40
2022-08-03T23:13:00.455Z,52.60
2022-08-03T23:15:29.637Z,52.70
2022-08-03T23:17:57.473Z,52.80
2022-08-03T23:20:26.430Z,52.90
2022-08-03T23:22:54.491Z,52.80
2022-08-03T23:25:21.167Z,53.00
2022-08-03T23:27:47.786Z,53.20
2022-08-03T23:30:31.716Z,53.40
2022-08-03T23:32:58.383Z,53.60
2022-08-03T23:36:28.844Z,53.80
2022-08-03T23:38:22.033Z,54.10
2022-08-03T23:40:51.480Z,54.30
2022-08-03T23:43:50.909Z,54.40
2022-08-03T23:46:06.489Z,54.60
2022-08-03T23:48:33.655Z,54.80
2022-08-03T23:51:02.741Z,54.90
2022-08-03T23:53:39.692Z,55.30
2022-08-03T23:56:16.048Z,55.40
2022-08-03T23:59:04.415Z,55.50
